Terminal Aerodrome Forecast
Issued by NWS

Home | Current Version | Previous Version | Text Only | Print | Product List | Glossary On
Versions: 1 2 3 4 5 6 7 8 9 10 11 12 13 14 15 16 17 18 19 20 21 22 23 24 25 26 27 28 29 30 31 32
000
FTUS45 KABQ 202348
TAFSAF
TAF
KSAF 202348Z 2100/2124 17010KT P6SM SCT040
     FM210300 13012G18KT P6SM SCT040 BKN100
     FM211400 14015G25KT 5SM -SHRA OVC025
     FM211800 11012KT P6SM VCSH BKN040=

USA.gov is the U.S. government's official web portal to all federal, state and local government web resources and services.